createdAt,value
2018-12-12T06:25:37.171Z,23.10
2018-12-12T06:28:09.646Z,23.77
2018-12-12T06:30:42.103Z,22.63
2018-12-12T06:33:15.184Z,22.77
2018-12-12T06:35:47.633Z,23.70
2018-12-12T06:38:20.365Z,24.17
2018-12-12T06:40:53.010Z,23.20
2018-12-12T06:43:25.550Z,23.53
2018-12-12T06:45:57.980Z,23.40
2018-12-12T06:48:30.652Z,24.67
2018-12-12T06:51:03.423Z,23.50
2018-12-12T06:53:35.874Z,23.40
2018-12-12T06:56:08.358Z,23.00
2018-12-12T06:58:41.003Z,21.47
2018-12-12T07:01:13.450Z,22.77
2018-12-12T07:03:45.881Z,21.93
2018-12-12T07:06:18.393Z,23.03
2018-12-12T07:08:52.007Z,22.30
2018-12-12T07:11:24.499Z,21.67
2018-12-12T07:13:56.959Z,21.20
2018-12-12T07:16:29.385Z,20.97
2018-12-12T07:19:01.831Z,21.30
2018-12-12T07:21:35.011Z,20.73
2018-12-12T07:24:07.445Z,21.03
2018-12-12T07:26:40.172Z,21.47
2018-12-12T07:29:12.608Z,21.27
2018-12-12T07:31:45.370Z,22.43
2018-12-12T07:34:17.805Z,21.87
2018-12-12T07:36:50.233Z,22.77
2018-12-12T07:39:22.689Z,22.47
2018-12-12T07:41:55.356Z,22.70
2018-12-12T07:44:28.121Z,22.30
2018-12-12T07:47:00.530Z,23.70
2018-12-12T07:49:32.946Z,22.83
2018-12-12T07:52:05.373Z,21.67
2018-12-12T07:54:37.799Z,23.87
2018-12-12T07:57:10.321Z,23.57
2018-12-12T07:59:42.769Z,23.07
2018-12-12T08:02:15.422Z,22.63
2018-12-12T08:04:47.865Z,23.87
2018-12-12T08:07:20.296Z,22.40
2018-12-12T08:09:52.741Z,21.40
2018-12-12T08:12:25.160Z,21.13
2018-12-12T08:14:57.824Z,23.73
2018-12-12T08:17:30.233Z,25.57
2018-12-12T08:20:02.663Z,24.07
2018-12-12T08:22:35.348Z,24.73
2018-12-12T08:25:08.011Z,22.47
2018-12-12T08:27:40.982Z,23.10
2018-12-12T08:30:13.393Z,22.47
2018-12-12T08:32:47.041Z,21.87
2018-12-12T08:35:19.469Z,23.63
2018-12-12T08:37:51.929Z,21.23
2018-12-12T08:40:24.920Z,21.97
2018-12-12T08:42:57.363Z,20.23
2018-12-12T08:45:29.784Z,20.47
2018-12-12T08:48:02.445Z,21.27
2018-12-12T08:50:35.120Z,20.57
2018-12-12T08:53:07.588Z,20.97
2018-12-12T08:55:39.984Z,21.27
2018-12-12T08:58:12.392Z,21.40
2018-12-12T09:00:45.837Z,18.13
2018-12-12T09:03:18.238Z,18.90
2018-12-12T09:05:50.652Z,19.37
2018-12-12T09:08:23.064Z,20.63
2018-12-12T09:10:55.804Z,20.67
2018-12-12T09:13:28.690Z,19.07
2018-12-12T09:16:01.203Z,20.03
2018-12-12T09:18:34.612Z,20.03
2018-12-12T09:21:07.025Z,18.90
2018-12-12T09:23:39.436Z,24.03
2018-12-12T09:26:11.850Z,19.80
2018-12-12T09:28:44.260Z,18.43
2018-12-12T09:31:16.684Z,20.03
2018-12-12T09:33:49.086Z,20.17
2018-12-12T09:36:21.775Z,20.27
2018-12-12T09:38:54.182Z,38.07
2018-12-12T09:41:26.944Z,23.90
2018-12-12T09:43:59.359Z,19.97
2018-12-12T09:46:31.768Z,18.73
2018-12-12T09:49:04.180Z,19.47
2018-12-12T09:51:36.599Z,19.57
2018-12-12T09:54:09.035Z,17.03
2018-12-12T09:56:41.457Z,17.60
2018-12-12T09:59:14.376Z,17.83
2018-12-12T10:01:46.802Z,17.47
2018-12-12T10:04:19.214Z,20.50
2018-12-12T10:06:51.646Z,20.33
2018-12-12T10:09:24.063Z,18.80
2018-12-12T10:11:56.480Z,16.00
2018-12-12T10:14:28.908Z,19.83
2018-12-12T10:17:01.339Z,15.97
2018-12-12T10:19:33.758Z,15.10
2018-12-12T10:22:06.189Z,14.30
2018-12-12T10:24:38.600Z,13.47
2018-12-12T10:27:11.028Z,14.23
2018-12-12T10:29:43.453Z,13.17
2018-12-12T10:32:15.872Z,13.17
2018-12-12T10:34:48.294Z,13.90
2018-12-12T10:37:20.715Z,14.07
2018-12-12T10:39:53.419Z,14.03
2018-12-12T10:42:26.117Z,13.60
2018-12-12T10:44:58.532Z,13.97
2018-12-12T10:47:31.263Z,13.70
2018-12-12T10:50:04.948Z,14.43
2018-12-12T10:52:37.663Z,14.87
2018-12-12T10:55:10.061Z,15.07
2018-12-12T10:57:42.800Z,14.90
2018-12-12T11:00:15.568Z,14.57
2018-12-12T11:02:48.016Z,15.40
2018-12-12T11:05:21.125Z,15.20
2018-12-12T11:07:53.828Z,15.80
2018-12-12T11:10:26.244Z,22.47
2018-12-12T11:12:58.684Z,13.23
2018-12-12T11:15:31.172Z,17.77
2018-12-12T11:18:03.592Z,12.63
2018-12-12T11:20:36.264Z,13.77
2018-12-12T11:23:08.987Z,10.77
2018-12-12T11:25:41.393Z,8.40
2018-12-12T11:28:14.120Z,5.93
2018-12-12T11:30:46.540Z,5.80
2018-12-12T11:33:18.975Z,5.17
2018-12-12T11:35:51.380Z,4.47
2018-12-12T11:38:23.927Z,4.17
2018-12-12T11:40:56.327Z,4.80
2018-12-12T11:43:29.080Z,5.00
2018-12-12T11:46:01.492Z,4.37
2018-12-12T11:48:33.967Z,4.60
2018-12-12T11:51:06.380Z,3.67
2018-12-12T11:53:39.065Z,3.80
2018-12-12T11:56:11.728Z,4.30
2018-12-12T11:58:44.161Z,4.37
2018-12-12T12:01:16.816Z,3.37
2018-12-12T12:03:49.273Z,3.40
2018-12-12T12:06:21.703Z,3.43
2018-12-12T12:08:54.226Z,3.47
2018-12-12T12:11:26.633Z,3.57
2018-12-12T12:13:59.090Z,4.00
2018-12-12T12:16:31.859Z,3.80
2018-12-12T12:19:04.301Z,3.80
2018-12-12T12:21:36.778Z,3.77
2018-12-12T12:24:09.197Z,3.10
2018-12-12T12:26:41.700Z,3.90
2018-12-12T12:29:14.428Z,3.97
2018-12-12T12:31:46.864Z,3.90
2018-12-12T12:34:19.680Z,3.83
2018-12-12T12:36:52.366Z,3.90
2018-12-12T12:39:25.040Z,4.17
2018-12-12T12:41:57.477Z,4.43
2018-12-12T12:44:29.901Z,4.50
2018-12-12T12:47:02.365Z,4.57
2018-12-12T12:49:34.946Z,4.37
2018-12-12T12:52:07.720Z,5.43
2018-12-12T12:54:40.164Z,4.60
2018-12-12T12:57:12.621Z,4.80
2018-12-12T12:59:45.320Z,7.50
2018-12-12T13:02:17.773Z,5.23
2018-12-12T13:04:50.499Z,5.53
2018-12-12T13:07:23.702Z,5.10
2018-12-12T13:09:56.468Z,4.57
2018-12-12T13:12:29.142Z,5.37
2018-12-12T13:15:01.676Z,5.67
2018-12-12T13:17:34.103Z,4.90
2018-12-12T13:20:06.539Z,5.40
2018-12-12T13:22:38.971Z,5.20
2018-12-12T13:25:11.400Z,4.90
2018-12-12T13:30:22.884Z,5.23
2018-12-12T13:32:55.334Z,5.00
2018-12-12T13:35:27.744Z,5.00
2018-12-12T13:38:00.181Z,4.80
2018-12-12T13:40:32.599Z,5.00
2018-12-12T13:43:05.392Z,4.93
2018-12-12T13:45:37.831Z,5.13
2018-12-12T13:48:10.388Z,4.60
2018-12-12T13:50:42.808Z,5.13
2018-12-12T13:53:15.495Z,5.20
2018-12-12T13:55:48.165Z,4.97
2018-12-12T13:58:20.580Z,5.07
2018-12-12T14:00:53.010Z,5.47
2018-12-12T14:03:25.564Z,4.77
2018-12-12T14:05:57.976Z,4.47
2018-12-12T14:08:30.436Z,5.17
2018-12-12T14:11:03.226Z,4.83
2018-12-12T14:13:35.893Z,4.50
2018-12-12T14:16:08.540Z,5.00
2018-12-12T14:18:41.059Z,4.77
2018-12-12T14:21:13.456Z,4.80
2018-12-12T14:23:46.092Z,4.80
2018-12-12T14:26:18.780Z,4.37
2018-12-12T14:28:51.460Z,4.40
2018-12-12T14:31:24.111Z,4.20
2018-12-12T14:33:56.515Z,4.77
2018-12-12T14:36:29.028Z,4.57
2018-12-12T14:39:01.439Z,4.37
2018-12-12T14:41:33.977Z,4.57
2018-12-12T14:44:07.018Z,5.13
2018-12-12T14:46:39.444Z,4.63
2018-12-12T14:49:11.861Z,4.80
2018-12-12T14:51:44.279Z,4.80
2018-12-12T14:54:16.687Z,5.03
2018-12-12T14:56:49.099Z,5.27
2018-12-12T14:59:21.524Z,5.23
2018-12-12T15:01:53.975Z,5.13
2018-12-12T15:04:26.686Z,5.37
2018-12-12T15:06:59.420Z,6.43
2018-12-12T15:09:31.836Z,6.20
2018-12-12T15:12:04.264Z,4.93
2018-12-12T15:14:36.692Z,5.30
2018-12-12T15:17:09.104Z,5.73
2018-12-12T15:19:42.056Z,4.90
2018-12-12T15:22:14.583Z,5.20
2018-12-12T15:24:47.003Z,5.87
2018-12-12T15:27:19.436Z,5.47
2018-12-12T15:29:52.141Z,5.80
2018-12-12T15:32:24.552Z,5.47
2018-12-12T15:34:57.054Z,6.03
2018-12-12T15:37:29.455Z,6.00
2018-12-12T15:40:01.859Z,5.57
2018-12-12T15:42:34.282Z,5.90
2018-12-12T15:45:07.554Z,6.17
2018-12-12T15:47:39.949Z,6.00
2018-12-12T15:50:12.361Z,6.03
2018-12-12T15:52:44.777Z,7.17
2018-12-12T15:55:17.507Z,6.63
2018-12-12T15:57:49.959Z,6.20
2018-12-12T16:00:22.395Z,6.50
2018-12-12T16:02:55.163Z,6.57
2018-12-12T16:05:27.575Z,6.50
2018-12-12T16:08:00.281Z,6.53
2018-12-12T16:10:32.719Z,6.60
2018-12-12T16:13:05.145Z,6.33
2018-12-12T16:15:37.827Z,6.40
2018-12-12T16:18:10.246Z,7.17
2018-12-12T16:20:42.664Z,6.93
2018-12-12T16:23:15.122Z,7.33
2018-12-12T16:25:47.517Z,7.90
2018-12-12T16:28:19.928Z,7.17
2018-12-12T16:30:52.673Z,7.07
2018-12-12T16:33:25.117Z,7.57
2018-12-12T16:35:57.565Z,7.70
2018-12-12T16:38:29.964Z,7.67
2018-12-12T16:41:02.379Z,8.20
2018-12-12T16:43:34.784Z,7.93
2018-12-12T16:46:07.233Z,8.70
2018-12-12T16:48:39.646Z,9.00
2018-12-12T16:51:12.083Z,8.03
2018-12-12T16:53:44.486Z,8.47
2018-12-12T16:56:16.908Z,8.37
2018-12-12T16:58:49.312Z,9.00
2018-12-12T17:01:21.842Z,8.40
2018-12-12T17:03:54.320Z,8.20
2018-12-12T17:06:26.770Z,8.53
2018-12-12T17:08:59.173Z,8.73
2018-12-12T17:11:31.584Z,9.37
2018-12-12T17:14:04.037Z,9.43
2018-12-12T17:16:36.460Z,8.80
2018-12-12T17:19:08.878Z,9.33
2018-12-12T17:21:41.264Z,9.23
2018-12-12T17:24:13.696Z,8.80
2018-12-12T17:26:46.344Z,9.33
2018-12-12T17:29:19.028Z,9.23
2018-12-12T17:31:51.433Z,9.33
2018-12-12T17:34:24.228Z,9.57
2018-12-12T17:36:56.630Z,10.87
2018-12-12T17:39:29.138Z,10.43
2018-12-12T17:42:01.530Z,9.97
2018-12-12T17:44:34.500Z,9.57
2018-12-12T17:47:07.007Z,9.80
2018-12-12T17:49:39.980Z,10.40
2018-12-12T17:52:12.377Z,9.97
2018-12-12T17:54:44.788Z,9.87
2018-12-12T17:57:17.192Z,10.27
2018-12-12T17:59:49.880Z,11.07
2018-12-12T18:02:22.285Z,9.70
2018-12-12T18:04:54.704Z,9.70
2018-12-12T18:07:27.136Z,10.53
2018-12-12T18:09:59.808Z,10.13
2018-12-12T18:12:32.252Z,11.23
2018-12-12T18:15:04.721Z,9.60
2018-12-12T18:17:37.356Z,9.57
2018-12-12T18:20:09.809Z,9.03
2018-12-12T18:22:42.219Z,9.83
2018-12-12T18:25:14.645Z,9.50
2018-12-12T18:27:47.376Z,9.73
2018-12-12T18:30:19.861Z,10.43
2018-12-12T18:32:52.277Z,10.37
2018-12-12T18:35:24.713Z,8.90
2018-12-12T18:37:57.141Z,8.57
2018-12-12T18:40:29.592Z,8.83
2018-12-12T18:43:01.995Z,9.40
2018-12-12T18:45:34.431Z,9.10
2018-12-12T18:48:07.085Z,9.63
2018-12-12T18:50:40.177Z,9.70
2018-12-12T18:53:12.613Z,10.37
2018-12-12T18:55:45.839Z,10.80
2018-12-12T18:58:18.266Z,11.60
2018-12-12T19:00:51.075Z,12.40
2018-12-12T19:03:23.742Z,12.97
2018-12-12T19:05:56.156Z,12.70
2018-12-12T19:08:28.561Z,13.07
2018-12-12T19:11:01.269Z,13.57
2018-12-12T19:13:33.704Z,12.10
2018-12-12T19:16:06.239Z,11.47
2018-12-12T19:18:38.913Z,10.80
2018-12-12T19:21:11.345Z,10.83
2018-12-12T19:23:43.804Z,9.67
2018-12-12T19:26:16.448Z,10.10
2018-12-12T19:28:49.205Z,11.67
2018-12-12T19:31:21.620Z,9.97
2018-12-12T19:33:54.281Z,10.80
2018-12-12T19:36:27.044Z,12.73
2018-12-12T19:39:00.012Z,10.23
2018-12-12T19:41:32.740Z,8.80
2018-12-12T19:44:05.649Z,8.60
2018-12-12T19:46:38.095Z,8.47
2018-12-12T19:49:10.761Z,9.10
2018-12-12T19:51:43.192Z,7.80
2018-12-12T19:54:15.909Z,7.90
2018-12-12T19:56:48.350Z,7.50
2018-12-12T19:59:21.031Z,7.40
2018-12-12T20:01:53.768Z,7.20
2018-12-12T20:04:26.175Z,7.80
2018-12-12T20:06:58.614Z,8.10
2018-12-12T20:09:31.040Z,8.67
2018-12-12T20:12:03.445Z,8.30
2018-12-12T20:14:36.192Z,7.90
2018-12-12T20:17:08.646Z,7.20
2018-12-12T20:19:41.160Z,7.47
2018-12-12T20:22:13.589Z,7.97
2018-12-12T20:24:46.005Z,7.33
2018-12-12T20:27:18.451Z,8.27
2018-12-12T20:29:50.868Z,7.13
2018-12-12T20:32:23.283Z,7.73
2018-12-12T20:34:55.707Z,7.43
2018-12-12T20:37:28.133Z,7.20
2018-12-12T20:40:00.553Z,8.27
2018-12-12T20:42:33.359Z,7.47
2018-12-12T20:45:06.082Z,7.50
2018-12-12T20:47:38.564Z,7.97
2018-12-12T20:50:11.673Z,8.23
2018-12-12T20:52:44.118Z,7.57
2018-12-12T20:55:16.823Z,7.23
2018-12-12T20:57:49.245Z,7.57
2018-12-12T21:00:21.672Z,7.50
2018-12-12T21:02:54.349Z,7.50
2018-12-12T21:05:26.748Z,8.27
2018-12-12T21:07:59.325Z,7.47
2018-12-12T21:10:31.839Z,7.33
2018-12-12T21:13:04.273Z,7.57
2018-12-12T21:15:36.924Z,8.00
2018-12-12T21:18:09.339Z,8.67
2018-12-12T21:20:41.739Z,8.50
2018-12-12T21:23:14.173Z,8.50
2018-12-12T21:25:46.593Z,8.10
2018-12-12T21:28:19.012Z,8.10
2018-12-12T21:30:51.506Z,7.90
2018-12-12T21:33:23.940Z,8.00
